createdAt,value
2023-05-18T00:01:07.164Z,62.65
2023-05-18T00:03:34.061Z,62.81
2023-05-18T00:06:00.858Z,62.82
2023-05-18T00:08:27.463Z,62.91
2023-05-18T00:10:54.057Z,62.83
2023-05-18T00:13:20.660Z,62.88
2023-05-18T00:15:47.486Z,62.72
2023-05-18T00:18:14.283Z,62.83
2023-05-18T00:20:40.969Z,62.87
2023-05-18T00:23:07.644Z,62.85
2023-05-18T00:25:34.255Z,62.94
2023-05-18T00:28:00.933Z,62.69
2023-05-18T00:30:27.594Z,62.88
2023-05-18T00:32:56.669Z,62.80
2023-05-18T00:35:23.400Z,62.98
2023-05-18T00:37:50.054Z,63.22
2023-05-18T00:40:17.152Z,63.39
2023-05-18T00:42:43.748Z,63.49
2023-05-18T00:45:10.668Z,63.46
2023-05-18T00:47:37.439Z,63.81
2023-05-18T00:50:04.524Z,63.96
2023-05-18T00:52:31.364Z,64.26
2023-05-18T00:55:01.427Z,64.48
2023-05-18T00:57:28.285Z,64.52
2023-05-18T00:59:56.392Z,64.32
2023-05-18T01:02:23.430Z,63.93
2023-05-18T01:04:50.323Z,63.74
2023-05-18T01:07:16.976Z,63.60
2023-05-18T01:09:43.657Z,63.19
2023-05-18T01:12:21.278Z,62.79
2023-05-18T01:15:19.404Z,62.67
2023-05-18T01:18:01.389Z,63.21
2023-05-18T01:20:32.707Z,63.54
2023-05-18T01:23:05.489Z,63.25
2023-05-18T01:25:42.108Z,63.77
2023-05-18T01:28:15.294Z,63.42
2023-05-18T01:30:43.062Z,64.13
2023-05-18T01:33:13.922Z,64.03
2023-05-18T01:35:40.628Z,64.59
2023-05-18T01:38:07.528Z,64.69
2023-05-18T01:41:18.983Z,63.87
2023-05-18T01:44:06.007Z,63.90
2023-05-18T01:46:35.490Z,64.91
2023-05-18T01:49:16.562Z,64.07
2023-05-18T01:51:47.258Z,64.26
2023-05-18T01:54:19.206Z,64.69
2023-05-18T01:56:48.823Z,64.61
2023-05-18T01:59:16.248Z,64.86
2023-05-18T02:01:42.997Z,64.87
2023-05-18T02:04:10.421Z,64.64
2023-05-18T02:06:37.539Z,64.70
2023-05-18T02:09:05.368Z,64.86
2023-05-18T02:11:32.880Z,64.79
2023-05-18T02:13:59.632Z,64.81
2023-05-18T02:16:26.746Z,64.85
2023-05-18T02:18:53.437Z,64.90
2023-05-18T02:21:20.088Z,65.07
2023-05-18T02:23:46.774Z,65.05
2023-05-18T02:26:14.216Z,65.06
2023-05-18T02:28:41.225Z,65.10
2023-05-18T02:31:09.548Z,64.94
2023-05-18T02:33:36.329Z,64.57
2023-05-18T02:36:03.013Z,63.95
2023-05-18T02:38:29.711Z,64.08
2023-05-18T02:40:56.324Z,63.96
2023-05-18T02:43:23.026Z,63.97
2023-05-18T02:45:49.757Z,63.92
2023-05-18T02:48:17.134Z,64.04
2023-05-18T02:50:43.868Z,64.17
2023-05-18T02:53:10.572Z,64.14
2023-05-18T02:55:37.328Z,63.92
2023-05-18T02:58:12.997Z,63.74
2023-05-18T03:01:18.021Z,63.48
2023-05-18T03:03:49.634Z,63.19
2023-05-18T03:06:16.352Z,62.87
2023-05-18T03:08:44.596Z,62.89
2023-05-18T03:11:12.861Z,63.08
2023-05-18T03:13:39.611Z,63.42
2023-05-18T03:16:06.371Z,63.42
2023-05-18T03:18:33.321Z,63.57
2023-05-18T03:20:59.956Z,63.71
2023-05-18T03:23:26.657Z,63.90
2023-05-18T03:25:53.334Z,63.98
2023-05-18T03:28:21.253Z,64.34
2023-05-18T03:30:48.301Z,64.45
2023-05-18T03:33:15.017Z,64.76
2023-05-18T03:35:42.044Z,64.85
2023-05-18T03:38:09.204Z,65.04
2023-05-18T03:40:38.342Z,65.09
2023-05-18T03:43:05.476Z,65.22
2023-05-18T03:45:33.569Z,65.47
2023-05-18T03:48:00.996Z,65.40
2023-05-18T03:50:28.790Z,65.40
2023-05-18T03:52:56.410Z,65.56
2023-05-18T03:55:23.378Z,65.54
2023-05-18T03:57:50.053Z,65.65
2023-05-18T04:00:17.301Z,65.93
2023-05-18T04:02:44.170Z,65.97
2023-05-18T04:05:13.150Z,65.87
2023-05-18T04:07:39.914Z,66.12
2023-05-18T04:10:08.913Z,66.22
2023-05-18T04:12:35.530Z,66.24
2023-05-18T04:15:02.304Z,66.05
2023-05-18T04:17:28.973Z,66.17
2023-05-18T04:19:55.736Z,66.18
2023-05-18T04:22:22.537Z,66.28
2023-05-18T04:24:49.997Z,66.48
2023-05-18T04:27:16.707Z,66.90
2023-05-18T04:29:43.784Z,67.78
2023-05-18T04:32:11.034Z,68.14
2023-05-18T04:34:38.130Z,68.67
2023-05-18T04:37:05.618Z,68.95
2023-05-18T04:39:33.961Z,68.32
2023-05-18T04:42:02.501Z,67.66
2023-05-18T04:44:31.288Z,67.10
2023-05-18T04:46:59.974Z,66.36
2023-05-18T04:49:26.845Z,66.38
2023-05-18T04:51:54.949Z,66.26
2023-05-18T04:54:26.288Z,65.63
2023-05-18T04:56:53.320Z,66.52
2023-05-18T04:59:20.352Z,66.81
2023-05-18T05:01:47.137Z,67.11
2023-05-18T05:04:14.270Z,67.19
2023-05-18T05:06:41.419Z,67.37
2023-05-18T05:09:08.156Z,67.57
2023-05-18T05:11:34.959Z,67.28
2023-05-18T05:14:02.939Z,67.28
2023-05-18T05:16:29.739Z,67.46
2023-05-18T05:18:56.619Z,67.55
2023-05-18T05:21:23.369Z,67.44
2023-05-18T05:23:51.139Z,67.33
2023-05-18T05:26:18.616Z,67.23
2023-05-18T05:28:46.100Z,67.06
2023-05-18T05:31:13.067Z,66.90
2023-05-18T05:33:40.031Z,67.00
2023-05-18T05:36:07.233Z,66.86
2023-05-18T05:38:34.760Z,66.70
2023-05-18T05:41:01.936Z,66.26
2023-05-18T05:43:28.885Z,66.50
2023-05-18T05:45:55.827Z,66.00
2023-05-18T05:48:22.719Z,64.64
2023-05-18T05:50:49.574Z,65.09
2023-05-18T05:53:16.660Z,65.39
2023-05-18T05:55:43.991Z,65.42
2023-05-18T05:58:14.040Z,65.38
2023-05-18T06:00:43.796Z,65.41
2023-05-18T06:03:10.583Z,64.74
2023-05-18T06:05:41.105Z,64.70
2023-05-18T06:08:09.747Z,64.62
2023-05-18T06:10:36.482Z,64.96
2023-05-18T06:13:03.721Z,63.87
2023-05-18T06:15:40.761Z,61.66
2023-05-18T06:18:07.655Z,62.45
2023-05-18T06:20:35.015Z,62.53
2023-05-18T06:23:01.772Z,62.60
2023-05-18T06:25:51.638Z,63.02
2023-05-18T06:28:30.185Z,61.35
2023-05-18T06:31:01.631Z,60.11
2023-05-18T06:33:31.693Z,59.69
2023-05-18T06:35:58.373Z,60.75
2023-05-18T06:38:25.325Z,60.50
2023-05-18T06:40:51.973Z,57.69
2023-05-18T06:43:18.627Z,57.43
2023-05-18T06:45:56.726Z,57.79
2023-05-18T06:48:36.176Z,58.53
2023-05-18T06:51:03.014Z,57.25
2023-05-18T06:53:29.713Z,56.40
2023-05-18T06:55:56.509Z,57.02
2023-05-18T06:58:23.446Z,57.31
2023-05-18T07:00:51.115Z,56.00
2023-05-18T07:03:17.896Z,57.09
2023-05-18T07:05:44.730Z,58.05
2023-05-18T07:08:11.430Z,56.74
2023-05-18T07:10:38.080Z,53.39
2023-05-18T07:13:04.947Z,51.49
2023-05-18T07:15:31.981Z,51.46
2023-05-18T07:17:58.900Z,51.75
2023-05-18T07:20:26.553Z,51.17
2023-05-18T07:22:53.522Z,52.49
2023-05-18T07:25:20.277Z,52.63
2023-05-18T07:27:46.887Z,50.69
2023-05-18T07:30:13.831Z,51.80
2023-05-18T07:32:40.488Z,48.86
2023-05-18T07:35:07.308Z,49.63
2023-05-18T07:37:33.923Z,49.96
2023-05-18T07:40:01.108Z,49.45
2023-05-18T07:42:27.799Z,49.26
2023-05-18T07:44:54.514Z,49.40
2023-05-18T07:47:21.158Z,49.90
2023-05-18T07:49:48.359Z,49.79
2023-05-18T07:52:15.080Z,49.53
2023-05-18T07:54:41.752Z,48.90
2023-05-18T07:57:08.436Z,48.53
2023-05-18T07:59:35.239Z,48.58
2023-05-18T08:02:01.934Z,48.72
2023-05-18T08:04:28.865Z,50.48
2023-05-18T08:06:55.577Z,50.64
2023-05-18T08:09:22.194Z,49.70
2023-05-18T08:11:48.823Z,50.93
2023-05-18T08:14:15.519Z,51.67
2023-05-18T08:16:42.341Z,51.02
2023-05-18T08:19:09.325Z,50.09
2023-05-18T08:21:39.241Z,50.10
2023-05-18T08:24:07.724Z,47.69
2023-05-18T08:26:34.371Z,47.19
2023-05-18T08:29:01.077Z,48.68
2023-05-18T08:31:27.746Z,50.13
2023-05-18T08:33:54.378Z,49.40
2023-05-18T08:36:21.003Z,49.59
2023-05-18T08:38:47.679Z,48.06
2023-05-18T08:41:26.273Z,49.50
2023-05-18T08:43:59.436Z,51.00
2023-05-18T08:46:34.338Z,49.83
2023-05-18T08:49:02.495Z,48.87
2023-05-18T08:51:33.648Z,46.53
2023-05-18T08:54:00.838Z,46.94
2023-05-18T08:56:30.906Z,46.28
2023-05-18T08:58:58.572Z,46.48
2023-05-18T09:01:26.685Z,48.33
2023-05-18T09:03:53.652Z,49.51
2023-05-18T09:06:23.978Z,47.52
2023-05-18T09:08:53.357Z,48.08
2023-05-18T09:11:21.350Z,48.37
2023-05-18T09:13:49.433Z,48.16
2023-05-18T09:16:16.113Z,50.05
2023-05-18T09:18:42.850Z,48.19
2023-05-18T09:21:09.796Z,49.00
2023-05-18T09:23:39.050Z,49.38
2023-05-18T09:26:05.755Z,49.31
2023-05-18T09:28:43.147Z,48.04
2023-05-18T09:31:16.295Z,48.18
2023-05-18T09:33:45.234Z,47.20
2023-05-18T09:36:12.369Z,45.88
2023-05-18T09:38:40.627Z,44.13
2023-05-18T09:41:11.199Z,45.86
2023-05-18T09:43:38.233Z,46.81
2023-05-18T09:46:09.489Z,45.75
2023-05-18T09:48:37.790Z,45.86
2023-05-18T09:51:06.100Z,43.53
2023-05-18T09:53:35.981Z,42.99
2023-05-18T09:56:05.774Z,41.54
2023-05-18T09:58:33.880Z,41.58
2023-05-18T10:01:01.389Z,43.04
2023-05-18T10:03:34.078Z,44.07
2023-05-18T10:06:11.276Z,41.53
2023-05-18T10:08:38.189Z,43.26
2023-05-18T10:11:05.558Z,42.75
2023-05-18T10:13:33.705Z,41.65
2023-05-18T10:16:01.331Z,42.27
2023-05-18T10:18:47.429Z,42.21
2023-05-18T10:21:16.923Z,42.00
2023-05-18T10:23:45.172Z,42.84
2023-05-18T10:26:13.893Z,43.08
2023-05-18T10:28:50.120Z,43.19
2023-05-18T10:31:17.373Z,45.16
2023-05-18T10:33:45.078Z,45.12
2023-05-18T10:36:11.923Z,44.68
2023-05-18T10:38:38.948Z,44.21
2023-05-18T10:41:06.373Z,45.68
2023-05-18T10:43:34.335Z,42.36
2023-05-18T10:46:01.331Z,46.07
2023-05-18T10:48:29.705Z,42.78
2023-05-18T10:50:58.182Z,43.39
2023-05-18T10:53:26.759Z,44.05
2023-05-18T10:55:54.557Z,40.24
2023-05-18T10:58:25.003Z,41.99
2023-05-18T11:00:55.002Z,41.00
2023-05-18T11:03:22.047Z,40.48
2023-05-18T11:06:04.352Z,39.91
2023-05-18T11:08:31.030Z,39.18
2023-05-18T11:11:05.495Z,41.10
2023-05-18T11:13:33.136Z,42.25
2023-05-18T11:15:59.882Z,43.07
2023-05-18T11:18:36.019Z,43.19
2023-05-18T11:21:02.983Z,42.77
2023-05-18T11:23:33.282Z,41.32
2023-05-18T11:26:01.518Z,40.93
2023-05-18T11:28:28.148Z,42.03
2023-05-18T11:30:54.814Z,42.51
2023-05-18T11:33:23.044Z,39.78
2023-05-18T11:36:03.617Z,38.94
2023-05-18T11:38:51.522Z,36.74
2023-05-18T11:41:35.169Z,39.04
2023-05-18T11:44:18.272Z,40.75
2023-05-18T11:47:05.080Z,39.16
2023-05-18T11:49:36.174Z,39.53
2023-05-18T11:52:14.741Z,38.50
2023-05-18T11:54:49.697Z,40.73
2023-05-18T11:57:18.661Z,41.56
2023-05-18T11:59:48.058Z,42.17
2023-05-18T12:02:24.082Z,42.55
2023-05-18T12:04:58.378Z,42.73
2023-05-18T12:07:25.470Z,43.64
2023-05-18T12:09:52.129Z,39.68
2023-05-18T12:12:19.257Z,38.32
2023-05-18T12:14:53.111Z,40.10
2023-05-18T12:17:19.812Z,41.29
2023-05-18T12:19:49.058Z,41.34
2023-05-18T12:22:16.312Z,40.78
2023-05-18T12:24:44.092Z,41.27
2023-05-18T12:27:12.888Z,41.02
2023-05-18T12:29:41.329Z,40.50
2023-05-18T12:32:10.250Z,37.50
2023-05-18T12:34:38.217Z,38.94
2023-05-18T12:37:06.430Z,38.70
2023-05-18T12:39:33.153Z,39.53
2023-05-18T12:42:13.836Z,39.25
2023-05-18T12:44:41.897Z,40.79
2023-05-18T12:47:08.598Z,42.74
2023-05-18T12:49:40.183Z,42.11
2023-05-18T12:52:14.762Z,42.09
2023-05-18T12:54:52.472Z,39.12
2023-05-18T12:57:19.161Z,39.75
2023-05-18T12:59:49.076Z,39.34
2023-05-18T13:02:29.262Z,41.26
2023-05-18T13:05:10.063Z,40.04
2023-05-18T13:07:45.733Z,39.80
2023-05-18T13:10:16.868Z,39.94
2023-05-18T13:12:47.331Z,40.46
2023-05-18T13:15:15.121Z,41.65
2023-05-18T13:18:09.534Z,41.93
2023-05-18T13:20:41.678Z,40.50
2023-05-18T13:23:25.299Z,42.25
2023-05-18T13:25:52.386Z,41.80
2023-05-18T13:28:20.988Z,42.04
2023-05-18T13:30:49.444Z,39.14
2023-05-18T13:33:17.545Z,40.90
2023-05-18T13:35:44.542Z,42.58
2023-05-18T13:38:13.117Z,42.03
2023-05-18T13:40:41.117Z,42.23
2023-05-18T13:43:10.097Z,42.24
2023-05-18T13:45:38.089Z,41.26
2023-05-18T13:48:06.877Z,41.29
2023-05-18T13:50:34.969Z,42.03
2023-05-18T13:53:01.890Z,42.42
2023-05-18T13:55:31.729Z,41.54
2023-05-18T13:57:58.753Z,41.09
2023-05-18T14:00:25.500Z,41.42
2023-05-18T14:02:52.381Z,42.15
2023-05-18T14:05:19.109Z,42.38
2023-05-18T14:07:45.786Z,42.31
2023-05-18T14:10:13.527Z,43.21
2023-05-18T14:12:40.662Z,43.92
2023-05-18T14:15:07.823Z,44.47
2023-05-18T14:17:34.656Z,44.13
2023-05-18T14:20:01.874Z,44.96
2023-05-18T14:22:28.491Z,44.93
2023-05-18T14:24:55.083Z,45.67
2023-05-18T14:27:22.040Z,46.10
2023-05-18T14:29:49.759Z,44.58
2023-05-18T14:32:17.135Z,44.95
2023-05-18T14:34:43.874Z,45.36
2023-05-18T14:37:10.554Z,45.65
2023-05-18T14:39:37.165Z,45.85
2023-05-18T14:42:03.983Z,44.80
2023-05-18T14:44:30.578Z,44.61
2023-05-18T14:46:57.312Z,43.53
2023-05-18T14:49:24.042Z,43.23
2023-05-18T14:51:50.637Z,44.11
2023-05-18T14:54:17.235Z,42.90
2023-05-18T14:56:43.921Z,42.96
2023-05-18T14:59:10.606Z,41.61
2023-05-18T15:01:37.461Z,43.10
2023-05-18T15:04:04.251Z,42.92
2023-05-18T15:06:30.946Z,43.47
2023-05-18T15:08:57.747Z,43.78
2023-05-18T15:11:24.371Z,44.68
2023-05-18T15:13:50.981Z,44.90
2023-05-18T15:16:17.830Z,44.73
2023-05-18T15:18:44.525Z,45.48
2023-05-18T15:21:11.177Z,46.25
2023-05-18T15:23:37.944Z,46.47
2023-05-18T15:26:06.714Z,46.05
2023-05-18T15:28:34.906Z,46.33
2023-05-18T15:31:01.518Z,45.82
2023-05-18T15:33:28.203Z,46.70
2023-05-18T15:35:54.819Z,47.02
2023-05-18T15:38:21.443Z,46.54
2023-05-18T15:40:48.064Z,46.30
2023-05-18T15:43:14.650Z,46.90
2023-05-18T15:45:41.374Z,47.38
2023-05-18T15:48:08.099Z,47.44
2023-05-18T15:50:34.839Z,47.83
2023-05-18T15:53:01.445Z,47.60
2023-05-18T15:55:28.224Z,48.40
2023-05-18T15:57:55.466Z,46.11
2023-05-18T16:00:22.150Z,46.11
2023-05-18T16:02:48.908Z,46.20
2023-05-18T16:05:15.692Z,45.61
2023-05-18T16:07:42.276Z,46.54
2023-05-18T16:10:09.220Z,45.44
2023-05-18T16:12:35.876Z,46.43
2023-05-18T16:15:02.531Z,46.88
2023-05-18T16:17:32.095Z,46.51
2023-05-18T16:19:59.472Z,46.20
2023-05-18T16:22:27.501Z,46.34
2023-05-18T16:24:54.128Z,46.70
2023-05-18T16:27:20.731Z,47.24
2023-05-18T16:29:47.455Z,46.35
2023-05-18T16:32:14.133Z,47.11
2023-05-18T16:34:40.821Z,47.55
2023-05-18T16:37:07.464Z,47.03
2023-05-18T16:39:34.111Z,47.98
2023-05-18T16:42:00.741Z,48.13
2023-05-18T16:44:27.345Z,48.22
2023-05-18T16:46:54.167Z,48.38
2023-05-18T16:49:20.928Z,48.82
2023-05-18T16:51:47.515Z,48.79
2023-05-18T16:54:14.206Z,49.21
2023-05-18T16:56:40.922Z,49.38
2023-05-18T16:59:07.613Z,49.61
2023-05-18T17:01:34.267Z,49.28
2023-05-18T17:04:01.134Z,48.02
2023-05-18T17:06:27.932Z,47.26
2023-05-18T17:08:54.543Z,47.83
2023-05-18T17:11:21.143Z,47.81
2023-05-18T17:13:47.764Z,48.39
2023-05-18T17:16:14.726Z,48.96
2023-05-18T17:18:41.398Z,49.39
2023-05-18T17:21:08.054Z,49.63
2023-05-18T17:23:34.750Z,49.65
2023-05-18T17:26:06.618Z,49.00
2023-05-18T17:28:33.412Z,49.33
2023-05-18T17:31:00.128Z,49.23
2023-05-18T17:33:26.799Z,49.44
2023-05-18T17:35:53.448Z,49.07
2023-05-18T17:38:20.065Z,49.38
2023-05-18T17:40:46.702Z,49.47
2023-05-18T17:43:13.391Z,49.64
2023-05-18T17:45:40.448Z,49.29
2023-05-18T17:48:07.180Z,49.84
2023-05-18T17:50:34.160Z,48.97
2023-05-18T17:53:00.941Z,49.59
2023-05-18T17:55:27.661Z,49.99
2023-05-18T17:57:54.373Z,50.26
2023-05-18T18:00:21.389Z,50.70
2023-05-18T18:02:48.180Z,50.79
2023-05-18T18:05:14.956Z,50.23
2023-05-18T18:07:41.671Z,50.73
2023-05-18T18:10:08.790Z,50.95
2023-05-18T18:12:35.401Z,51.20
2023-05-18T18:15:02.206Z,51.32
2023-05-18T18:17:28.958Z,51.69
2023-05-18T18:19:55.699Z,51.10
2023-05-18T18:22:22.379Z,51.40
2023-05-18T18:24:49.099Z,51.06
2023-05-18T18:27:15.810Z,51.21
2023-05-18T18:29:42.468Z,51.08
2023-05-18T18:32:09.270Z,51.27
2023-05-18T18:34:36.028Z,51.58
2023-05-18T18:37:02.716Z,51.53
2023-05-18T18:39:29.400Z,51.78
2023-05-18T18:41:56.272Z,51.75
2023-05-18T18:44:23.057Z,51.79
2023-05-18T18:46:49.788Z,51.16
2023-05-18T18:49:16.519Z,51.38
2023-05-18T18:51:43.196Z,51.58
2023-05-18T18:54:09.789Z,51.85
2023-05-18T18:56:36.478Z,51.80
2023-05-18T18:59:03.109Z,52.19
2023-05-18T19:01:29.930Z,52.32
2023-05-18T19:03:56.570Z,52.39
2023-05-18T19:06:23.328Z,52.58
2023-05-18T19:08:50.067Z,52.76
2023-05-18T19:11:17.292Z,52.78
2023-05-18T19:13:43.897Z,53.08
2023-05-18T19:16:10.711Z,53.31
2023-05-18T19:18:37.361Z,53.58
2023-05-18T19:21:04.014Z,53.66
2023-05-18T19:23:30.824Z,53.47
2023-05-18T19:25:57.448Z,53.55
2023-05-18T19:28:24.167Z,53.76
2023-05-18T19:30:50.789Z,53.70
2023-05-18T19:33:17.445Z,53.58
2023-05-18T19:35:44.196Z,53.49
2023-05-18T19:38:11.251Z,53.60
2023-05-18T19:40:37.905Z,53.69
2023-05-18T19:43:04.508Z,54.03
2023-05-18T19:45:31.673Z,54.23
2023-05-18T19:47:58.915Z,54.36
2023-05-18T19:50:28.583Z,53.98
2023-05-18T19:52:55.285Z,54.46
2023-05-18T19:55:21.966Z,54.54
2023-05-18T19:57:49.041Z,54.63
2023-05-18T20:00:15.987Z,54.76
2023-05-18T20:02:42.691Z,54.56
2023-05-18T20:05:09.457Z,53.84
2023-05-18T20:07:36.210Z,54.02
2023-05-18T20:10:02.844Z,54.32
2023-05-18T20:12:29.492Z,54.24
2023-05-18T20:14:56.138Z,54.63
2023-05-18T20:17:22.815Z,54.73
2023-05-18T20:19:49.544Z,54.68
2023-05-18T20:22:17.453Z,54.92
2023-05-18T20:24:44.250Z,54.63
2023-05-18T20:27:13.375Z,54.58
2023-05-18T20:29:40.301Z,54.19
2023-05-18T20:32:07.103Z,54.24
2023-05-18T20:34:34.097Z,54.50
2023-05-18T20:37:00.736Z,54.63
2023-05-18T20:39:27.394Z,54.65
2023-05-18T20:41:54.032Z,54.49
2023-05-18T20:44:20.812Z,54.77
2023-05-18T20:46:47.640Z,54.29
2023-05-18T20:49:14.286Z,54.24
2023-05-18T20:51:40.996Z,54.32
2023-05-18T20:54:08.423Z,54.28
2023-05-18T20:56:36.408Z,54.22
2023-05-18T20:59:05.579Z,54.75
2023-05-18T21:01:33.117Z,54.43
2023-05-18T21:03:59.861Z,54.45
2023-05-18T21:06:26.847Z,54.44
2023-05-18T21:08:53.547Z,54.42
2023-05-18T21:11:20.346Z,54.46
2023-05-18T21:13:46.937Z,54.74
2023-05-18T21:16:13.812Z,54.94
2023-05-18T21:18:40.492Z,55.04
2023-05-18T21:21:10.316Z,54.28
2023-05-18T21:23:36.998Z,55.07
2023-05-18T21:26:03.965Z,55.01
2023-05-18T21:28:30.658Z,55.25
2023-05-18T21:30:57.290Z,55.25
2023-05-18T21:33:24.031Z,55.38
2023-05-18T21:35:50.732Z,55.41
2023-05-18T21:38:17.504Z,55.42
2023-05-18T21:40:44.378Z,55.59
2023-05-18T21:43:11.246Z,55.25
2023-05-18T21:45:38.986Z,55.46
2023-05-18T21:48:06.269Z,55.66
2023-05-18T21:50:33.174Z,55.40
2023-05-18T21:53:00.889Z,55.43
2023-05-18T21:55:27.734Z,55.71
2023-05-18T21:57:54.461Z,55.81
2023-05-18T22:00:21.316Z,55.78
2023-05-18T22:02:48.915Z,55.66
2023-05-18T22:05:15.676Z,55.86
2023-05-18T22:07:42.383Z,55.88
2023-05-18T22:10:09.287Z,55.75
2023-05-18T22:12:36.037Z,55.61
2023-05-18T22:15:02.743Z,55.46
2023-05-18T22:17:29.519Z,55.65
2023-05-18T22:19:56.245Z,55.56
2023-05-18T22:22:30.168Z,55.29
2023-05-18T22:24:57.778Z,55.62
2023-05-18T22:27:26.984Z,55.57
2023-05-18T22:29:53.727Z,54.74
2023-05-18T22:32:20.805Z,54.51
2023-05-18T22:34:47.604Z,54.65
2023-05-18T22:37:14.262Z,54.65
2023-05-18T22:39:40.920Z,54.75
2023-05-18T22:42:07.640Z,54.84
2023-05-18T22:44:34.264Z,54.99
2023-05-18T22:47:00.952Z,55.18
2023-05-18T22:49:27.538Z,55.23
2023-05-18T22:51:54.190Z,55.63
2023-05-18T22:54:21.795Z,55.67
2023-05-18T22:56:48.406Z,55.60
2023-05-18T22:59:15.058Z,55.41
2023-05-18T23:01:41.862Z,55.61
2023-05-18T23:04:08.744Z,55.56
2023-05-18T23:06:35.616Z,55.81
2023-05-18T23:09:02.313Z,55.80
2023-05-18T23:11:28.946Z,55.85
2023-05-18T23:13:55.708Z,55.86
2023-05-18T23:16:22.343Z,56.07
2023-05-18T23:18:49.182Z,56.42
2023-05-18T23:21:15.933Z,56.52
2023-05-18T23:23:42.536Z,56.55
2023-05-18T23:26:09.228Z,56.51
2023-05-18T23:28:35.931Z,56.57
2023-05-18T23:31:02.676Z,56.76
2023-05-18T23:33:29.722Z,56.47
2023-05-18T23:36:00.578Z,56.34
2023-05-18T23:38:31.138Z,56.40
2023-05-18T23:40:58.054Z,56.75
2023-05-18T23:43:24.946Z,56.89
2023-05-18T23:45:51.824Z,56.83
2023-05-18T23:48:18.820Z,56.70
2023-05-18T23:50:46.061Z,56.67
2023-05-18T23:53:15.178Z,56.70
2023-05-18T23:55:42.592Z,56.92
2023-05-18T23:58:09.775Z,56.99
